sensor_id;sensor_type;location;lat;lon;timestamp;temperature;humidity
55211;DHT22;41082;52.822;6.666;2023-02-11T00:00:41;7.30;99.90
55211;DHT22;41082;52.822;6.666;2023-02-11T00:03:07;7.40;99.90
55211;DHT22;41082;52.822;6.666;2023-02-11T00:05:33;7.40;99.90
55211;DHT22;41082;52.822;6.666;2023-02-11T00:07:59;7.40;99.90
55211;DHT22;41082;52.822;6.666;2023-02-11T00:10:24;7.40;99.90
55211;DHT22;41082;52.822;6.666;2023-02-11T00:12:50;7.40;99.90
55211;DHT22;41082;52.822;6.666;2023-02-11T00:15:15;7.40;99.90
55211;DHT22;41082;52.822;6.666;2023-02-11T00:17:41;7.50;99.90
55211;DHT22;41082;52.822;6.666;2023-02-11T00:20:07;7.40;99.90
55211;DHT22;41082;52.822;6.666;2023-02-11T00:22:32;7.50;99.90
55211;DHT22;41082;52.822;6.666;2023-02-11T00:24:58;7.50;99.90
55211;DHT22;41082;52.822;6.666;2023-02-11T00:27:24;7.50;99.90
55211;DHT22;41082;52.822;6.666;2023-02-11T00:29:49;7.50;99.90
55211;DHT22;41082;52.822;6.666;2023-02-11T00:32:15;7.50;99.90
55211;DHT22;41082;52.822;6.666;2023-02-11T00:34:40;7.60;99.90
55211;DHT22;41082;52.822;6.666;2023-02-11T00:37:06;7.50;99.90
55211;DHT22;41082;52.822;6.666;2023-02-11T00:39:31;7.50;99.90
55211;DHT22;41082;52.822;6.666;2023-02-11T00:41:57;7.50;99.90
55211;DHT22;41082;52.822;6.666;2023-02-11T00:44:23;7.50;99.90
55211;DHT22;41082;52.822;6.666;2023-02-11T00:46:48;7.50;99.90
55211;DHT22;41082;52.822;6.666;2023-02-11T00:49:14;7.50;99.90
55211;DHT22;41082;52.822;6.666;2023-02-11T00:51:39;7.50;99.90
55211;DHT22;41082;52.822;6.666;2023-02-11T00:54:05;7.60;99.90
55211;DHT22;41082;52.822;6.666;2023-02-11T00:56:31;7.60;99.90
55211;DHT22;41082;52.822;6.666;2023-02-11T00:58:57;7.50;99.90
55211;DHT22;41082;52.822;6.666;2023-02-11T01:01:22;7.50;99.90
55211;DHT22;41082;52.822;6.666;2023-02-11T01:03:48;7.50;99.90
55211;DHT22;41082;52.822;6.666;2023-02-11T01:06:14;7.50;99.90
55211;DHT22;41082;52.822;6.666;2023-02-11T01:08:40;7.50;99.90
55211;DHT22;41082;52.822;6.666;2023-02-11T01:11:15;7.50;99.90
55211;DHT22;41082;52.822;6.666;2023-02-11T01:13:42;7.50;99.90
55211;DHT22;41082;52.822;6.666;2023-02-11T01:16:09;7.50;99.90
55211;DHT22;41082;52.822;6.666;2023-02-11T01:18:35;7.50;99.90
55211;DHT22;41082;52.822;6.666;2023-02-11T01:21:01;7.50;99.90
55211;DHT22;41082;52.822;6.666;2023-02-11T01:23:27;7.50;99.90
55211;DHT22;41082;52.822;6.666;2023-02-11T01:25:52;7.50;99.90
55211;DHT22;41082;52.822;6.666;2023-02-11T01:28:20;7.50;99.90
55211;DHT22;41082;52.822;6.666;2023-02-11T01:30:46;7.50;99.90
55211;DHT22;41082;52.822;6.666;2023-02-11T01:33:12;7.50;99.90
55211;DHT22;41082;52.822;6.666;2023-02-11T01:35:38;7.50;99.90
55211;DHT22;41082;52.822;6.666;2023-02-11T01:38:06;7.50;99.90
55211;DHT22;41082;52.822;6.666;2023-02-11T01:40:31;7.50;99.90
55211;DHT22;41082;52.822;6.666;2023-02-11T01:42:57;7.40;99.90
55211;DHT22;41082;52.822;6.666;2023-02-11T01:48:15;7.40;99.90
55211;DHT22;41082;52.822;6.666;2023-02-11T01:50:44;7.40;99.90
55211;DHT22;41082;52.822;6.666;2023-02-11T01:53:11;7.50;99.90
55211;DHT22;41082;52.822;6.666;2023-02-11T01:55:56;7.50;99.90
55211;DHT22;41082;52.822;6.666;2023-02-11T01:58:54;7.40;99.90
55211;DHT22;41082;52.822;6.666;2023-02-11T02:01:24;7.50;99.90
55211;DHT22;41082;52.822;6.666;2023-02-11T02:03:53;7.50;99.90
55211;DHT22;41082;52.822;6.666;2023-02-11T02:06:43;7.40;99.90
55211;DHT22;41082;52.822;6.666;2023-02-11T02:09:19;7.40;99.90
55211;DHT22;41082;52.822;6.666;2023-02-11T02:11:46;7.40;99.90
55211;DHT22;41082;52.822;6.666;2023-02-11T02:14:12;7.40;99.90
55211;DHT22;41082;52.822;6.666;2023-02-11T02:16:38;7.50;99.90
55211;DHT22;41082;52.822;6.666;2023-02-11T02:19:28;7.50;99.90
55211;DHT22;41082;52.822;6.666;2023-02-11T02:22:10;7.50;99.90
55211;DHT22;41082;52.822;6.666;2023-02-11T02:28:24;7.50;99.90
55211;DHT22;41082;52.822;6.666;2023-02-11T02:31:17;7.50;99.90
55211;DHT22;41082;52.822;6.666;2023-02-11T02:34:01;7.50;99.90
55211;DHT22;41082;52.822;6.666;2023-02-11T02:37:06;7.50;99.90
55211;DHT22;41082;52.822;6.666;2023-02-11T02:39:35;7.40;99.90
55211;DHT22;41082;52.822;6.666;2023-02-11T02:42:02;7.50;99.90
55211;DHT22;41082;52.822;6.666;2023-02-11T02:44:29;7.50;99.90
55211;DHT22;41082;52.822;6.666;2023-02-11T02:46:55;7.50;99.90
55211;DHT22;41082;52.822;6.666;2023-02-11T02:49:21;7.50;99.90
55211;DHT22;41082;52.822;6.666;2023-02-11T02:52:08;7.50;99.90
55211;DHT22;41082;52.822;6.666;2023-02-11T02:54:50;7.60;99.90
55211;DHT22;41082;52.822;6.666;2023-02-11T03:00:18;7.60;99.90
55211;DHT22;41082;52.822;6.666;2023-02-11T03:06:02;7.60;99.90
55211;DHT22;41082;52.822;6.666;2023-02-11T03:08:56;7.60;99.90
55211;DHT22;41082;52.822;6.666;2023-02-11T03:11:25;7.60;99.90
55211;DHT22;41082;52.822;6.666;2023-02-11T03:13:51;7.60;99.90
55211;DHT22;41082;52.822;6.666;2023-02-11T03:16:22;7.60;99.90
55211;DHT22;41082;52.822;6.666;2023-02-11T03:18:56;7.60;99.90
55211;DHT22;41082;52.822;6.666;2023-02-11T03:21:24;7.60;99.90
55211;DHT22;41082;52.822;6.666;2023-02-11T03:23:53;7.60;99.90
55211;DHT22;41082;52.822;6.666;2023-02-11T03:26:29;7.60;99.90
55211;DHT22;41082;52.822;6.666;2023-02-11T03:29:15;7.60;99.90
55211;DHT22;41082;52.822;6.666;2023-02-11T03:32:11;7.60;99.90
55211;DHT22;41082;52.822;6.666;2023-02-11T03:34:58;7.60;99.90
55211;DHT22;41082;52.822;6.666;2023-02-11T03:37:44;7.60;99.90
55211;DHT22;41082;52.822;6.666;2023-02-11T03:40:17;7.60;99.90
55211;DHT22;41082;52.822;6.666;2023-02-11T03:43:15;7.60;99.90
55211;DHT22;41082;52.822;6.666;2023-02-11T03:45:41;7.60;99.90
55211;DHT22;41082;52.822;6.666;2023-02-11T03:48:35;7.60;99.90
55211;DHT22;41082;52.822;6.666;2023-02-11T03:51:05;7.60;99.90
55211;DHT22;41082;52.822;6.666;2023-02-11T03:53:31;7.60;99.90
55211;DHT22;41082;52.822;6.666;2023-02-11T03:55:59;7.60;99.90
55211;DHT22;41082;52.822;6.666;2023-02-11T03:58:26;7.60;99.90
55211;DHT22;41082;52.822;6.666;2023-02-11T04:00:51;7.60;99.90
55211;DHT22;41082;52.822;6.666;2023-02-11T04:03:17;7.60;99.90
55211;DHT22;41082;52.822;6.666;2023-02-11T04:05:43;7.60;99.90
55211;DHT22;41082;52.822;6.666;2023-02-11T04:08:08;7.60;99.90
55211;DHT22;41082;52.822;6.666;2023-02-11T04:10:34;7.60;99.90
55211;DHT22;41082;52.822;6.666;2023-02-11T04:13:00;7.60;99.90
55211;DHT22;41082;52.822;6.666;2023-02-11T04:15:25;7.60;99.90
55211;DHT22;41082;52.822;6.666;2023-02-11T04:17:51;7.50;99.90
55211;DHT22;41082;52.822;6.666;2023-02-11T04:20:16;7.60;99.90
55211;DHT22;41082;52.822;6.666;2023-02-11T04:22:42;7.50;99.90
55211;DHT22;41082;52.822;6.666;2023-02-11T04:25:08;7.60;99.90
55211;DHT22;41082;52.822;6.666;2023-02-11T04:27:34;7.60;99.90
55211;DHT22;41082;52.822;6.666;2023-02-11T04:30:00;7.60;99.90
55211;DHT22;41082;52.822;6.666;2023-02-11T04:32:26;7.60;99.90
55211;DHT22;41082;52.822;6.666;2023-02-11T04:34:51;7.50;99.90
55211;DHT22;41082;52.822;6.666;2023-02-11T04:37:18;7.60;99.90
55211;DHT22;41082;52.822;6.666;2023-02-11T04:39:44;7.60;99.90
55211;DHT22;41082;52.822;6.666;2023-02-11T04:42:09;7.60;99.90
55211;DHT22;41082;52.822;6.666;2023-02-11T04:44:35;7.60;99.90
55211;DHT22;41082;52.822;6.666;2023-02-11T04:47:01;7.60;99.90
55211;DHT22;41082;52.822;6.666;2023-02-11T04:49:26;7.60;99.90
55211;DHT22;41082;52.822;6.666;2023-02-11T04:51:52;7.60;99.90
55211;DHT22;41082;52.822;6.666;2023-02-11T04:54:17;7.60;99.90
55211;DHT22;41082;52.822;6.666;2023-02-11T04:56:43;7.50;99.90
55211;DHT22;41082;52.822;6.666;2023-02-11T04:59:09;7.50;99.90
55211;DHT22;41082;52.822;6.666;2023-02-11T05:01:35;7.50;99.90
55211;DHT22;41082;52.822;6.666;2023-02-11T05:04:01;7.50;99.90
55211;DHT22;41082;52.822;6.666;2023-02-11T05:06:26;7.50;99.90
55211;DHT22;41082;52.822;6.666;2023-02-11T05:08:52;7.50;99.90
55211;DHT22;41082;52.822;6.666;2023-02-11T05:11:20;7.50;99.90
55211;DHT22;41082;52.822;6.666;2023-02-11T05:13:46;7.50;99.90
55211;DHT22;41082;52.822;6.666;2023-02-11T05:16:12;7.50;99.90
55211;DHT22;41082;52.822;6.666;2023-02-11T05:18:39;7.50;99.90
55211;DHT22;41082;52.822;6.666;2023-02-11T05:21:07;7.50;99.90
55211;DHT22;41082;52.822;6.666;2023-02-11T05:23:33;7.50;99.90
55211;DHT22;41082;52.822;6.666;2023-02-11T05:25:59;7.40;99.90
55211;DHT22;41082;52.822;6.666;2023-02-11T05:28:24;7.40;99.90
55211;DHT22;41082;52.822;6.666;2023-02-11T05:30:50;7.50;99.90
55211;DHT22;41082;52.822;6.666;2023-02-11T05:33:16;7.50;99.90
55211;DHT22;41082;52.822;6.666;2023-02-11T05:35:42;7.50;99.90
55211;DHT22;41082;52.822;6.666;2023-02-11T05:38:07;7.40;99.90
55211;DHT22;41082;52.822;6.666;2023-02-11T05:40:33;7.40;99.90
55211;DHT22;41082;52.822;6.666;2023-02-11T05:42:58;7.40;99.90
55211;DHT22;41082;52.822;6.666;2023-02-11T05:45:24;7.40;99.90
55211;DHT22;41082;52.822;6.666;2023-02-11T05:47:49;7.40;99.90
55211;DHT22;41082;52.822;6.666;2023-02-11T05:50:15;7.40;99.90
55211;DHT22;41082;52.822;6.666;2023-02-11T05:52:40;7.40;99.90
55211;DHT22;41082;52.822;6.666;2023-02-11T05:55:06;7.40;99.90
55211;DHT22;41082;52.822;6.666;2023-02-11T05:57:32;7.40;99.90
55211;DHT22;41082;52.822;6.666;2023-02-11T05:59:57;7.40;99.90
55211;DHT22;41082;52.822;6.666;2023-02-11T06:02:23;7.50;99.90
55211;DHT22;41082;52.822;6.666;2023-02-11T06:04:48;7.40;99.90
55211;DHT22;41082;52.822;6.666;2023-02-11T06:07:14;7.50;99.90
55211;DHT22;41082;52.822;6.666;2023-02-11T06:09:39;7.50;99.90
55211;DHT22;41082;52.822;6.666;2023-02-11T06:12:05;7.40;99.90
55211;DHT22;41082;52.822;6.666;2023-02-11T06:14:32;7.40;99.90
55211;DHT22;41082;52.822;6.666;2023-02-11T06:16:58;7.50;99.90
55211;DHT22;41082;52.822;6.666;2023-02-11T06:19:24;7.50;99.90
55211;DHT22;41082;52.822;6.666;2023-02-11T06:21:49;7.50;99.90
55211;DHT22;41082;52.822;6.666;2023-02-11T06:24:15;7.50;99.90
55211;DHT22;41082;52.822;6.666;2023-02-11T06:26:40;7.50;99.90
55211;DHT22;41082;52.822;6.666;2023-02-11T06:29:06;7.40;99.90
55211;DHT22;41082;52.822;6.666;2023-02-11T06:31:32;7.50;99.90
55211;DHT22;41082;52.822;6.666;2023-02-11T06:33:57;7.50;99.90
55211;DHT22;41082;52.822;6.666;2023-02-11T06:36:23;7.50;99.90
55211;DHT22;41082;52.822;6.666;2023-02-11T06:38:49;7.50;99.90
55211;DHT22;41082;52.822;6.666;2023-02-11T06:41:17;7.50;99.90
55211;DHT22;41082;52.822;6.666;2023-02-11T06:43:45;7.50;99.90
55211;DHT22;41082;52.822;6.666;2023-02-11T06:46:11;7.60;99.90
55211;DHT22;41082;52.822;6.666;2023-02-11T06:48:37;7.50;99.90
55211;DHT22;41082;52.822;6.666;2023-02-11T06:51:04;7.60;99.90
55211;DHT22;41082;52.822;6.666;2023-02-11T06:53:39;7.60;99.90
55211;DHT22;41082;52.822;6.666;2023-02-11T06:56:07;7.60;99.90
55211;DHT22;41082;52.822;6.666;2023-02-11T06:58:33;7.60;99.90
55211;DHT22;41082;52.822;6.666;2023-02-11T07:00:59;7.60;99.90
55211;DHT22;41082;52.822;6.666;2023-02-11T07:03:25;7.60;99.90
55211;DHT22;41082;52.822;6.666;2023-02-11T07:05:51;7.60;99.90
55211;DHT22;41082;52.822;6.666;2023-02-11T07:08:16;7.70;99.90
55211;DHT22;41082;52.822;6.666;2023-02-11T07:10:42;7.70;99.90
55211;DHT22;41082;52.822;6.666;2023-02-11T07:13:07;7.70;99.90
55211;DHT22;41082;52.822;6.666;2023-02-11T07:15:33;7.70;99.90
55211;DHT22;41082;52.822;6.666;2023-02-11T07:17:58;7.70;99.90
55211;DHT22;41082;52.822;6.666;2023-02-11T07:20:24;7.70;99.90
55211;DHT22;41082;52.822;6.666;2023-02-11T07:22:50;7.70;99.90
55211;DHT22;41082;52.822;6.666;2023-02-11T07:25:16;7.80;99.90
55211;DHT22;41082;52.822;6.666;2023-02-11T07:27:41;7.80;99.90
55211;DHT22;41082;52.822;6.666;2023-02-11T07:30:07;7.80;99.90
55211;DHT22;41082;52.822;6.666;2023-02-11T07:32:33;7.80;99.90
55211;DHT22;41082;52.822;6.666;2023-02-11T07:34:59;7.80;99.90
55211;DHT22;41082;52.822;6.666;2023-02-11T07:37:24;7.80;99.90
55211;DHT22;41082;52.822;6.666;2023-02-11T07:39:50;7.80;99.90
55211;DHT22;41082;52.822;6.666;2023-02-11T07:42:15;7.80;99.90
55211;DHT22;41082;52.822;6.666;2023-02-11T07:44:41;7.80;99.90
55211;DHT22;41082;52.822;6.666;2023-02-11T07:47:06;7.80;99.90
55211;DHT22;41082;52.822;6.666;2023-02-11T07:49:32;7.90;99.90
55211;DHT22;41082;52.822;6.666;2023-02-11T07:51:57;7.90;99.90
55211;DHT22;41082;52.822;6.666;2023-02-11T07:54:23;7.90;99.90
55211;DHT22;41082;52.822;6.666;2023-02-11T07:56:49;8.00;99.90
55211;DHT22;41082;52.822;6.666;2023-02-11T07:59:14;8.00;99.90
55211;DHT22;41082;52.822;6.666;2023-02-11T08:01:40;8.00;99.90
55211;DHT22;41082;52.822;6.666;2023-02-11T08:04:05;8.10;99.90
55211;DHT22;41082;52.822;6.666;2023-02-11T08:06:33;8.10;99.90
55211;DHT22;41082;52.822;6.666;2023-02-11T08:09:04;8.00;99.90
55211;DHT22;41082;52.822;6.666;2023-02-11T08:11:30;8.10;99.90
55211;DHT22;41082;52.822;6.666;2023-02-11T08:13:56;8.10;99.90
55211;DHT22;41082;52.822;6.666;2023-02-11T08:18:51;8.00;99.90
55211;DHT22;41082;52.822;6.666;2023-02-11T08:21:17;8.10;99.90
55211;DHT22;41082;52.822;6.666;2023-02-11T08:23:43;8.10;99.90
55211;DHT22;41082;52.822;6.666;2023-02-11T08:26:12;8.10;99.90
55211;DHT22;41082;52.822;6.666;2023-02-11T08:28:39;8.10;99.90
55211;DHT22;41082;52.822;6.666;2023-02-11T08:31:13;8.10;99.90
55211;DHT22;41082;52.822;6.666;2023-02-11T08:33:39;8.20;99.90
55211;DHT22;41082;52.822;6.666;2023-02-11T08:36:17;8.10;99.90
55211;DHT22;41082;52.822;6.666;2023-02-11T08:38:43;8.20;99.90
55211;DHT22;41082;52.822;6.666;2023-02-11T08:41:09;8.20;99.90
55211;DHT22;41082;52.822;6.666;2023-02-11T08:43:35;8.20;99.90
55211;DHT22;41082;52.822;6.666;2023-02-11T08:46:01;8.20;99.90
55211;DHT22;41082;52.822;6.666;2023-02-11T08:48:27;8.20;99.90
55211;DHT22;41082;52.822;6.666;2023-02-11T08:50:54;8.30;99.90
55211;DHT22;41082;52.822;6.666;2023-02-11T08:53:20;8.30;99.90
55211;DHT22;41082;52.822;6.666;2023-02-11T08:55:50;8.20;99.90
55211;DHT22;41082;52.822;6.666;2023-02-11T08:58:16;8.30;99.90
55211;DHT22;41082;52.822;6.666;2023-02-11T09:00:42;8.20;99.90
55211;DHT22;41082;52.822;6.666;2023-02-11T09:03:10;8.20;99.90
55211;DHT22;41082;52.822;6.666;2023-02-11T09:05:40;8.30;99.90
55211;DHT22;41082;52.822;6.666;2023-02-11T09:08:06;8.20;99.90
55211;DHT22;41082;52.822;6.666;2023-02-11T09:10:32;8.30;99.90
55211;DHT22;41082;52.822;6.666;2023-02-11T09:12:58;8.30;99.90
55211;DHT22;41082;52.822;6.666;2023-02-11T09:15:24;8.40;99.90
55211;DHT22;41082;52.822;6.666;2023-02-11T09:17:49;8.40;99.90
55211;DHT22;41082;52.822;6.666;2023-02-11T09:20:15;8.40;99.90
55211;DHT22;41082;52.822;6.666;2023-02-11T09:22:41;8.50;99.90
55211;DHT22;41082;52.822;6.666;2023-02-11T09:25:06;8.50;99.90
55211;DHT22;41082;52.822;6.666;2023-02-11T09:27:32;8.50;99.90
55211;DHT22;41082;52.822;6.666;2023-02-11T09:29:58;8.60;99.90
55211;DHT22;41082;52.822;6.666;2023-02-11T09:32:23;8.60;99.90
55211;DHT22;41082;52.822;6.666;2023-02-11T09:34:49;8.70;99.90
55211;DHT22;41082;52.822;6.666;2023-02-11T09:37:14;8.80;99.90
55211;DHT22;41082;52.822;6.666;2023-02-11T09:39:40;8.80;99.90
55211;DHT22;41082;52.822;6.666;2023-02-11T09:42:07;8.90;99.90
55211;DHT22;41082;52.822;6.666;2023-02-11T09:44:36;8.90;99.90
55211;DHT22;41082;52.822;6.666;2023-02-11T09:47:04;8.80;99.90
55211;DHT22;41082;52.822;6.666;2023-02-11T09:49:43;8.90;99.90
55211;DHT22;41082;52.822;6.666;2023-02-11T09:55:04;9.00;99.90
55211;DHT22;41082;52.822;6.666;2023-02-11T09:57:32;9.00;99.90
55211;DHT22;41082;52.822;6.666;2023-02-11T10:00:00;9.10;99.90
55211;DHT22;41082;52.822;6.666;2023-02-11T10:02:38;9.20;99.90
55211;DHT22;41082;52.822;6.666;2023-02-11T10:12:59;9.30;99.90
55211;DHT22;41082;52.822;6.666;2023-02-11T10:15:45;9.30;99.90
55211;DHT22;41082;52.822;6.666;2023-02-11T10:18:32;9.30;99.90
55211;DHT22;41082;52.822;6.666;2023-02-11T10:21:28;9.30;99.90
55211;DHT22;41082;52.822;6.666;2023-02-11T10:24:00;9.40;99.90
55211;DHT22;41082;52.822;6.666;2023-02-11T10:26:30;9.50;99.90
55211;DHT22;41082;52.822;6.666;2023-02-11T10:29:00;9.50;99.90
55211;DHT22;41082;52.822;6.666;2023-02-11T10:31:34;9.60;99.90
55211;DHT22;41082;52.822;6.666;2023-02-11T10:34:08;9.60;99.90
55211;DHT22;41082;52.822;6.666;2023-02-11T10:36:37;9.70;99.90
55211;DHT22;41082;52.822;6.666;2023-02-11T10:41:45;9.80;99.90
55211;DHT22;41082;52.822;6.666;2023-02-11T10:44:23;9.90;99.90
55211;DHT22;41082;52.822;6.666;2023-02-11T10:46:50;9.90;99.90
55211;DHT22;41082;52.822;6.666;2023-02-11T10:49:34;10.00;99.90
55211;DHT22;41082;52.822;6.666;2023-02-11T10:52:25;10.00;99.90
55211;DHT22;41082;52.822;6.666;2023-02-11T10:55:24;10.10;99.90
55211;DHT22;41082;52.822;6.666;2023-02-11T10:57:53;10.10;99.90
55211;DHT22;41082;52.822;6.666;2023-02-11T11:00:26;10.10;99.90
55211;DHT22;41082;52.822;6.666;2023-02-11T11:02:58;10.10;99.90
55211;DHT22;41082;52.822;6.666;2023-02-11T11:05:33;10.10;99.90
55211;DHT22;41082;52.822;6.666;2023-02-11T11:08:03;10.10;99.90
55211;DHT22;41082;52.822;6.666;2023-02-11T11:10:43;10.20;99.90
55211;DHT22;41082;52.822;6.666;2023-02-11T11:13:25;10.30;99.90
55211;DHT22;41082;52.822;6.666;2023-02-11T11:18:36;10.30;99.90
55211;DHT22;41082;52.822;6.666;2023-02-11T11:21:04;10.40;99.90
55211;DHT22;41082;52.822;6.666;2023-02-11T11:23:34;10.40;99.90
55211;DHT22;41082;52.822;6.666;2023-02-11T11:26:06;10.50;99.90
55211;DHT22;41082;52.822;6.666;2023-02-11T11:28:50;10.40;99.90
55211;DHT22;41082;52.822;6.666;2023-02-11T11:31:20;10.50;99.90
55211;DHT22;41082;52.822;6.666;2023-02-11T11:33:47;10.40;99.90
55211;DHT22;41082;52.822;6.666;2023-02-11T11:36:20;10.40;99.90
55211;DHT22;41082;52.822;6.666;2023-02-11T11:38:55;10.40;99.90
55211;DHT22;41082;52.822;6.666;2023-02-11T11:41:30;10.30;99.90
55211;DHT22;41082;52.822;6.666;2023-02-11T11:44:01;10.30;99.90
55211;DHT22;41082;52.822;6.666;2023-02-11T11:46:35;10.30;99.90
55211;DHT22;41082;52.822;6.666;2023-02-11T11:49:27;10.30;99.90
55211;DHT22;41082;52.822;6.666;2023-02-11T11:52:17;10.30;99.90
55211;DHT22;41082;52.822;6.666;2023-02-11T11:54:49;10.30;99.90
55211;DHT22;41082;52.822;6.666;2023-02-11T11:57:21;10.20;99.90
55211;DHT22;41082;52.822;6.666;2023-02-11T11:59:48;10.20;99.90
55211;DHT22;41082;52.822;6.666;2023-02-11T12:02:38;10.20;99.90
55211;DHT22;41082;52.822;6.666;2023-02-11T12:05:12;10.20;99.90
55211;DHT22;41082;52.822;6.666;2023-02-11T12:08:02;10.20;99.90
55211;DHT22;41082;52.822;6.666;2023-02-11T12:19:17;10.30;99.90
55211;DHT22;41082;52.822;6.666;2023-02-11T12:22:00;10.30;99.90
55211;DHT22;41082;52.822;6.666;2023-02-11T12:36:48;10.40;99.90
55211;DHT22;41082;52.822;6.666;2023-02-11T12:39:37;10.30;99.90
55211;DHT22;41082;52.822;6.666;2023-02-11T12:42:37;10.30;99.90
55211;DHT22;41082;52.822;6.666;2023-02-11T12:58:59;10.40;99.90
55211;DHT22;41082;52.822;6.666;2023-02-11T13:01:34;10.30;99.90
55211;DHT22;41082;52.822;6.666;2023-02-11T13:04:16;10.30;99.90
55211;DHT22;41082;52.822;6.666;2023-02-11T13:06:48;10.30;99.90
55211;DHT22;41082;52.822;6.666;2023-02-11T13:09:33;10.40;99.90
55211;DHT22;41082;52.822;6.666;2023-02-11T13:12:02;10.40;99.90
55211;DHT22;41082;52.822;6.666;2023-02-11T13:14:49;10.40;99.90
55211;DHT22;41082;52.822;6.666;2023-02-11T13:17:27;10.40;99.90
55211;DHT22;41082;52.822;6.666;2023-02-11T13:20:01;10.40;99.90
55211;DHT22;41082;52.822;6.666;2023-02-11T13:22:34;10.40;99.90
55211;DHT22;41082;52.822;6.666;2023-02-11T13:25:39;10.40;99.90
55211;DHT22;41082;52.822;6.666;2023-02-11T13:28:31;10.40;99.90
55211;DHT22;41082;52.822;6.666;2023-02-11T13:31:00;10.50;99.90
55211;DHT22;41082;52.822;6.666;2023-02-11T13:33:33;10.50;99.90
55211;DHT22;41082;52.822;6.666;2023-02-11T13:38:28;10.50;99.90
55211;DHT22;41082;52.822;6.666;2023-02-11T13:41:01;10.60;99.90
55211;DHT22;41082;52.822;6.666;2023-02-11T13:43:32;10.60;99.90
55211;DHT22;41082;52.822;6.666;2023-02-11T13:46:03;10.60;99.90
55211;DHT22;41082;52.822;6.666;2023-02-11T13:48:36;10.60;99.90
55211;DHT22;41082;52.822;6.666;2023-02-11T13:51:05;10.70;99.90
55211;DHT22;41082;52.822;6.666;2023-02-11T13:53:50;10.70;99.90
55211;DHT22;41082;52.822;6.666;2023-02-11T13:59:04;10.70;99.90
55211;DHT22;41082;52.822;6.666;2023-02-11T14:02:00;10.80;99.90
55211;DHT22;41082;52.822;6.666;2023-02-11T14:10:54;10.90;99.90
55211;DHT22;41082;52.822;6.666;2023-02-11T14:16:12;10.90;99.90
55211;DHT22;41082;52.822;6.666;2023-02-11T14:23:48;10.80;99.90
55211;DHT22;41082;52.822;6.666;2023-02-11T14:29:14;10.90;99.90
55211;DHT22;41082;52.822;6.666;2023-02-11T14:37:51;10.90;99.90
55211;DHT22;41082;52.822;6.666;2023-02-11T14:40:40;10.90;99.90
55211;DHT22;41082;52.822;6.666;2023-02-11T14:43:23;10.90;99.90
55211;DHT22;41082;52.822;6.666;2023-02-11T14:45:52;11.00;99.90
55211;DHT22;41082;52.822;6.666;2023-02-11T14:48:20;10.90;99.90
55211;DHT22;41082;52.822;6.666;2023-02-11T14:51:13;11.00;99.90
55211;DHT22;41082;52.822;6.666;2023-02-11T14:53:45;11.00;99.90
55211;DHT22;41082;52.822;6.666;2023-02-11T14:56:22;11.00;99.90
55211;DHT22;41082;52.822;6.666;2023-02-11T14:58:51;11.00;99.90
55211;DHT22;41082;52.822;6.666;2023-02-11T15:01:38;10.80;99.90
55211;DHT22;41082;52.822;6.666;2023-02-11T15:04:12;10.80;99.90
55211;DHT22;41082;52.822;6.666;2023-02-11T15:06:47;10.70;99.90
55211;DHT22;41082;52.822;6.666;2023-02-11T15:11:49;10.60;99.90
55211;DHT22;41082;52.822;6.666;2023-02-11T15:16:48;10.60;99.90
55211;DHT22;41082;52.822;6.666;2023-02-11T15:19:37;10.50;99.90
55211;DHT22;41082;52.822;6.666;2023-02-11T15:22:19;10.50;99.90
55211;DHT22;41082;52.822;6.666;2023-02-11T15:25:18;10.40;99.90
55211;DHT22;41082;52.822;6.666;2023-02-11T15:27:49;10.40;99.90
55211;DHT22;41082;52.822;6.666;2023-02-11T15:33:00;10.40;99.90
55211;DHT22;41082;52.822;6.666;2023-02-11T15:35:45;10.30;99.90
55211;DHT22;41082;52.822;6.666;2023-02-11T15:38:12;10.30;99.90
55211;DHT22;41082;52.822;6.666;2023-02-11T15:40:37;10.30;99.90
55211;DHT22;41082;52.822;6.666;2023-02-11T15:43:08;10.20;99.90
55211;DHT22;41082;52.822;6.666;2023-02-11T15:48:31;10.20;99.90
55211;DHT22;41082;52.822;6.666;2023-02-11T15:50:57;10.10;99.90
55211;DHT22;41082;52.822;6.666;2023-02-11T15:53:36;10.10;99.90
55211;DHT22;41082;52.822;6.666;2023-02-11T15:56:21;10.10;99.90
55211;DHT22;41082;52.822;6.666;2023-02-11T15:58:53;10.10;99.90
55211;DHT22;41082;52.822;6.666;2023-02-11T16:01:34;10.10;99.90
55211;DHT22;41082;52.822;6.666;2023-02-11T16:04:02;10.10;99.90
55211;DHT22;41082;52.822;6.666;2023-02-11T16:06:37;10.10;99.90
55211;DHT22;41082;52.822;6.666;2023-02-11T16:11:34;10.00;99.90
55211;DHT22;41082;52.822;6.666;2023-02-11T16:14:01;10.00;99.90
55211;DHT22;41082;52.822;6.666;2023-02-11T16:16:46;9.90;99.90
55211;DHT22;41082;52.822;6.666;2023-02-11T16:19:18;9.90;99.90
55211;DHT22;41082;52.822;6.666;2023-02-11T16:21:44;9.80;99.90
55211;DHT22;41082;52.822;6.666;2023-02-11T16:24:20;9.80;99.90
55211;DHT22;41082;52.822;6.666;2023-02-11T16:26:49;9.80;99.90
55211;DHT22;41082;52.822;6.666;2023-02-11T16:29:18;9.80;99.90
55211;DHT22;41082;52.822;6.666;2023-02-11T16:31:47;9.70;99.90
55211;DHT22;41082;52.822;6.666;2023-02-11T16:34:24;9.70;99.90
55211;DHT22;41082;52.822;6.666;2023-02-11T16:36:51;9.70;99.90
55211;DHT22;41082;52.822;6.666;2023-02-11T16:39:18;9.70;99.90
55211;DHT22;41082;52.822;6.666;2023-02-11T16:41:47;9.60;99.90
55211;DHT22;41082;52.822;6.666;2023-02-11T16:44:15;9.60;99.90
55211;DHT22;41082;52.822;6.666;2023-02-11T16:46:40;9.50;99.90
55211;DHT22;41082;52.822;6.666;2023-02-11T16:49:16;9.50;99.90
55211;DHT22;41082;52.822;6.666;2023-02-11T16:51:45;9.50;99.90
55211;DHT22;41082;52.822;6.666;2023-02-11T16:54:13;9.40;99.90
55211;DHT22;41082;52.822;6.666;2023-02-11T16:56:39;9.40;99.90
55211;DHT22;41082;52.822;6.666;2023-02-11T16:59:05;9.40;99.90
55211;DHT22;41082;52.822;6.666;2023-02-11T17:01:31;9.40;99.90
55211;DHT22;41082;52.822;6.666;2023-02-11T17:03:57;9.30;99.90
55211;DHT22;41082;52.822;6.666;2023-02-11T17:06:22;9.30;99.90
55211;DHT22;41082;52.822;6.666;2023-02-11T17:08:48;9.30;99.90
55211;DHT22;41082;52.822;6.666;2023-02-11T17:11:13;9.20;99.90
55211;DHT22;41082;52.822;6.666;2023-02-11T17:13:44;9.20;99.90
55211;DHT22;41082;52.822;6.666;2023-02-11T17:16:16;9.10;99.90
55211;DHT22;41082;52.822;6.666;2023-02-11T17:18:42;9.10;99.90
55211;DHT22;41082;52.822;6.666;2023-02-11T17:21:08;9.10;99.90
55211;DHT22;41082;52.822;6.666;2023-02-11T17:23:33;9.10;99.90
55211;DHT22;41082;52.822;6.666;2023-02-11T17:25:59;9.10;99.90
55211;DHT22;41082;52.822;6.666;2023-02-11T17:28:25;9.10;99.90
55211;DHT22;41082;52.822;6.666;2023-02-11T17:30:50;9.00;99.90
55211;DHT22;41082;52.822;6.666;2023-02-11T17:33:16;9.10;99.90
55211;DHT22;41082;52.822;6.666;2023-02-11T17:35:43;9.00;99.90
55211;DHT22;41082;52.822;6.666;2023-02-11T17:38:09;9.00;99.90
55211;DHT22;41082;52.822;6.666;2023-02-11T17:40:34;9.00;99.90
55211;DHT22;41082;52.822;6.666;2023-02-11T17:43:00;9.00;99.90
55211;DHT22;41082;52.822;6.666;2023-02-11T17:45:25;8.90;99.90
55211;DHT22;41082;52.822;6.666;2023-02-11T17:47:51;8.90;99.90
55211;DHT22;41082;52.822;6.666;2023-02-11T17:50:17;8.90;99.90